Aeroporto :
LOGIN :

Iscrizione | Disclaimer

   EN    FR    IT 

 










Sommario :    VFR   VFR Marginale   IFR   IFR Intensivo   IFR Molto Intensivo
Visibilità : 
Base nubi : 
>= 8 km
>= 3000ft
5 / 8 km
1000 / 3000 ft
1500m / 5 km
500 / 1000 ft
800 / 1500m
200 / 500 ft
< 800m
< 200 ft
Simboli :   Temporali  Nebbia  Neve Forte  Precipitazioni Forti  Vento > 20 kt
SIGMETs :   Varie  Temporali  Ghiacco  Turbolenza  Onda orograficha  Ceneri Vulcaniche






- Altitudine del aeroporto : 1363 ft


ETIC - Grafenwohr Army Air Field

ULTIMO METAR :
  • 110456Z AUTO 00000KT 9999 OVC160 M05/M05 A3001 RMK AO2 SLP193 T10541055 $

METARs OBSOLETI :
  • 110356Z AUTO 00000KT 9999 M M06/M06 A3004 RMK AO2 SLP203 T10591060 $
  • 110256Z AUTO 00000KT 9999 M M06/M06 A3007 RMK AO2 SLP211 T10621063 $

TAF TAF ETIC
Valido dal 10 a 22 ore il 12 a 04 ore UTC


102207Z 1022/1204 17009KT 9999 BKN015 620101 QNH2996INS
BECMG 1109/1110 16009KT 9999 SCT025 QNH2978INS
BECMG 1117/1118 16009KT 8000 -RASN OVC030 620304 QNH2970INS
BECMG 1201/1202 19010G18KT 8000 -RA OVC015 620204 QNH2969INS TX01/1121Z TNM05/1106Z



MetMap, La meteo Aeronautica in un colpo d'occhio ! - Copyright ORBIFLY Dicembre 2007 - Disclaimer

ORBIFLY MET'MAP TEAM :

Programmazione e sviluppo : Alexandra Zaïnal
Concezione : Baudouin d'Aumeries
Aiuto per la programmazione : Marc-Olivier Méhu
Supporto tecnico e logistico : Manuel Goepfert
Aiuto per la traduzione : Arnaldo La Scala

Contatto : metmap@orbifly.com




FONTI E CREDITI :

   NOAA